createdAt,value
2023-01-29T00:00:16.310Z,93412.00
2023-01-29T00:01:15.899Z,93412.00
2023-01-29T00:02:15.936Z,93410.00
2023-01-29T00:03:15.968Z,93408.00
2023-01-29T00:04:15.894Z,93408.00
2023-01-29T00:05:27.502Z,93408.00
2023-01-29T00:06:16.890Z,93406.00
2023-01-29T00:07:15.864Z,93408.00
2023-01-29T00:08:15.851Z,93406.00
2023-01-29T00:09:15.918Z,93404.00
2023-01-29T00:10:16.150Z,93408.00
2023-01-29T00:11:15.812Z,93406.00
2023-01-29T00:12:15.773Z,93408.00
2023-01-29T00:13:15.761Z,93410.00
2023-01-29T00:14:15.757Z,93408.00
2023-01-29T00:15:15.734Z,93408.00
2023-01-29T00:16:15.713Z,93410.00
2023-01-29T00:17:15.774Z,93408.00
2023-01-29T00:18:15.695Z,93406.00
2023-01-29T00:19:15.683Z,93403.00
2023-01-29T00:20:16.002Z,93403.00
2023-01-29T00:21:15.649Z,93404.00
2023-01-29T00:22:15.611Z,93399.00
2023-01-29T00:23:15.591Z,93403.00
2023-01-29T00:24:15.619Z,93399.00
2023-01-29T00:25:15.552Z,93397.00
2023-01-29T00:43:15.546Z,93391.00
2023-01-29T00:44:15.559Z,93387.00
2023-01-29T00:45:15.556Z,93389.00
2023-01-29T00:46:15.587Z,93387.00
2023-01-29T00:47:15.575Z,93387.00
2023-01-29T00:48:15.588Z,93389.00
2023-01-29T00:49:15.584Z,93389.00
2023-01-29T00:50:15.894Z,93391.00
2023-01-29T00:51:15.584Z,93389.00
2023-01-29T00:52:15.606Z,93389.00
2023-01-29T00:53:15.595Z,93389.00
2023-01-29T00:54:15.606Z,93387.00
2023-01-29T00:55:15.585Z,93389.00
2023-01-29T00:56:16.574Z,93389.00
2023-01-29T00:57:15.589Z,93389.00
2023-01-29T00:58:15.675Z,93387.00
2023-01-29T00:59:15.614Z,93387.00
2023-01-29T01:00:16.008Z,93389.00
2023-01-29T01:01:15.678Z,93389.00
2023-01-29T01:02:15.718Z,93387.00
2023-01-29T01:03:15.683Z,93387.00
2023-01-29T01:04:15.717Z,93389.00
2023-01-29T01:05:15.739Z,93387.00
2023-01-29T01:06:15.747Z,93385.00
2023-01-29T01:07:15.769Z,93387.00
2023-01-29T01:28:16.121Z,93389.00
2023-01-29T01:53:21.219Z,93416.00
2023-01-29T01:54:21.447Z,93406.00
2023-01-29T01:55:21.690Z,93410.00
2023-01-29T01:56:21.937Z,93410.00
2023-01-29T01:57:22.184Z,93408.00
2023-01-29T01:58:22.459Z,93410.00
2023-01-29T01:59:22.776Z,93408.00
2023-01-29T02:00:22.939Z,93408.00
2023-01-29T02:01:25.651Z,93410.00
2023-01-29T02:02:23.383Z,93414.00
2023-01-29T02:03:23.376Z,93410.00
2023-01-29T02:04:23.384Z,93418.00
2023-01-29T02:05:23.420Z,93416.00
2023-01-29T02:06:23.469Z,93416.00
2023-01-29T02:07:23.494Z,93418.00
2023-01-29T02:08:23.541Z,93418.00
2023-01-29T02:09:23.580Z,93414.00
2023-01-29T02:10:23.613Z,93414.00
2023-01-29T02:11:23.643Z,93414.00
2023-01-29T02:12:23.749Z,93414.00
2023-01-29T02:13:23.708Z,93414.00
2023-01-29T02:14:23.705Z,93416.00
2023-01-29T02:15:23.741Z,93416.00
2023-01-29T02:16:23.764Z,93414.00
2023-01-29T02:17:23.865Z,93412.00
2023-01-29T02:18:23.832Z,93412.00
2023-01-29T02:19:23.866Z,93410.00
2023-01-29T02:20:23.890Z,93412.00
2023-01-29T02:21:23.933Z,93414.00
2023-01-29T02:22:23.961Z,93414.00
2023-01-29T02:23:24.010Z,93412.00
2023-01-29T02:24:24.057Z,93414.00
2023-01-29T02:25:24.102Z,93416.00
2023-01-29T03:20:31.197Z,93469.00
2023-01-29T03:21:31.433Z,93467.00
2023-01-29T03:22:31.633Z,93467.00
2023-01-29T03:23:31.848Z,93467.00
2023-01-29T03:24:32.143Z,93467.00
2023-01-29T03:25:32.349Z,93467.00
2023-01-29T03:26:32.562Z,93469.00
2023-01-29T03:27:32.803Z,93471.00
2023-01-29T03:28:33.062Z,93471.00
2023-01-29T03:29:33.310Z,93469.00
2023-01-29T04:02:41.103Z,93450.00
2023-01-29T04:03:41.348Z,93450.00
2023-01-29T04:04:41.578Z,93444.00
2023-01-29T04:05:41.811Z,93448.00
2023-01-29T04:06:42.048Z,93448.00
2023-01-29T04:07:42.280Z,93448.00
2023-01-29T04:08:42.525Z,93448.00
2023-01-29T04:09:42.708Z,93446.00
2023-01-29T04:10:42.998Z,93450.00
2023-01-29T04:11:43.237Z,93450.00
2023-01-29T04:12:43.446Z,93452.00
2023-01-29T04:13:43.705Z,93454.00
2023-01-29T04:14:43.916Z,93455.00
2023-01-29T04:15:44.153Z,93459.00
2023-01-29T04:16:44.432Z,93459.00
2023-01-29T04:17:44.643Z,93459.00
2023-01-29T04:18:44.864Z,93457.00
2023-01-29T04:19:45.114Z,93459.00
2023-01-29T04:20:45.364Z,93455.00
2023-01-29T04:44:51.177Z,93457.00
2023-01-29T04:45:51.443Z,93457.00
2023-01-29T04:46:51.708Z,93455.00
2023-01-29T04:47:51.962Z,93459.00
2023-01-29T04:48:52.231Z,93459.00
2023-01-29T04:49:52.486Z,93457.00
2023-01-29T05:26:01.084Z,93463.00
2023-01-29T05:27:01.309Z,93459.00
2023-01-29T05:28:01.573Z,93455.00
2023-01-29T05:29:01.795Z,93455.00
2023-01-29T05:30:02.047Z,93455.00
2023-01-29T05:31:02.388Z,93457.00
2023-01-29T05:32:02.562Z,93459.00
2023-01-29T05:33:02.815Z,93459.00
2023-01-29T05:34:03.030Z,93463.00
2023-01-29T05:35:03.254Z,93465.00
2023-01-29T05:36:04.123Z,93469.00
2023-01-29T05:37:03.478Z,93473.00
2023-01-29T05:38:03.499Z,93471.00
2023-01-29T05:39:03.522Z,93473.00
2023-01-29T05:40:03.532Z,93475.00
2023-01-29T05:41:03.567Z,93477.00
2023-01-29T05:42:03.600Z,93475.00
2023-01-29T05:43:03.611Z,93479.00
2023-01-29T05:44:03.649Z,93481.00
2023-01-29T05:45:03.700Z,93487.00
2023-01-29T05:46:03.838Z,93487.00
2023-01-29T05:47:03.816Z,93491.00
2023-01-29T05:48:03.760Z,93489.00
2023-01-29T05:49:03.791Z,93493.00
2023-01-29T05:50:03.830Z,93491.00
2023-01-29T05:51:04.612Z,93493.00
2023-01-29T05:52:03.875Z,93493.00
2023-01-29T05:53:03.931Z,93493.00
2023-01-29T05:54:03.945Z,93497.00
2023-01-29T05:55:03.986Z,93495.00
2023-01-29T05:56:04.009Z,93497.00
2023-01-29T05:57:04.023Z,93495.00
2023-01-29T05:58:05.893Z,93491.00
2023-01-29T05:59:04.081Z,93491.00
2023-01-29T06:00:04.112Z,93493.00
2023-01-29T06:01:04.138Z,93489.00
2023-01-29T06:02:04.261Z,93489.00
2023-01-29T06:03:04.323Z,93493.00
2023-01-29T06:04:04.274Z,93489.00
2023-01-29T06:05:04.394Z,93491.00
2023-01-29T06:06:04.369Z,93491.00
2023-01-29T06:07:04.424Z,93493.00
2023-01-29T06:08:04.477Z,93493.00
2023-01-29T06:09:04.562Z,93495.00
2023-01-29T06:10:04.602Z,93495.00
2023-01-29T06:11:04.667Z,93495.00
2023-01-29T06:12:04.696Z,93499.00
2023-01-29T06:13:04.767Z,93499.00
2023-01-29T06:14:04.817Z,93499.00
2023-01-29T06:15:04.852Z,93499.00
2023-01-29T06:16:04.892Z,93499.00
2023-01-29T06:17:04.915Z,93499.00
2023-01-29T06:18:04.962Z,93504.00
2023-01-29T06:19:05.084Z,93504.00
2023-01-29T06:20:05.185Z,93506.00
2023-01-29T06:21:05.182Z,93502.00
2023-01-29T06:22:05.181Z,93504.00
2023-01-29T06:23:05.225Z,93501.00
2023-01-29T06:24:05.299Z,93504.00
2023-01-29T06:25:05.327Z,93504.00
2023-01-29T06:26:05.361Z,93506.00
2023-01-29T06:27:05.458Z,93514.00
2023-01-29T06:28:05.391Z,93510.00
2023-01-29T06:29:05.406Z,93516.00
2023-01-29T06:30:05.429Z,93514.00
2023-01-29T06:31:22.045Z,93514.00
2023-01-29T06:32:06.585Z,93514.00
2023-01-29T06:33:05.517Z,93512.00
2023-01-29T06:34:05.524Z,93514.00
2023-01-29T06:35:05.542Z,93516.00
2023-01-29T06:36:05.550Z,93520.00
2023-01-29T06:37:05.573Z,93518.00
2023-01-29T06:38:05.599Z,93526.00
2023-01-29T06:39:05.613Z,93524.00
2023-01-29T06:40:05.640Z,93524.00
2023-01-29T06:41:05.663Z,93520.00
2023-01-29T06:42:05.687Z,93522.00
2023-01-29T06:43:05.706Z,93528.00
2023-01-29T06:44:05.705Z,93528.00
2023-01-29T06:45:05.725Z,93530.00
2023-01-29T06:46:05.738Z,93532.00
2023-01-29T06:47:05.782Z,93532.00
2023-01-29T06:48:05.754Z,93538.00
2023-01-29T06:49:05.788Z,93538.00
2023-01-29T06:50:05.833Z,93540.00
2023-01-29T06:51:06.006Z,93538.00
2023-01-29T06:52:06.182Z,93536.00
2023-01-29T06:53:06.478Z,93540.00
2023-01-29T06:54:06.735Z,93540.00
2023-01-29T06:55:06.982Z,93536.00
2023-01-29T06:56:07.238Z,93536.00
2023-01-29T06:57:07.484Z,93536.00
2023-01-29T06:58:07.762Z,93538.00
2023-01-29T06:59:08.010Z,93534.00
2023-01-29T07:00:08.258Z,93532.00
2023-01-29T07:01:08.554Z,93534.00
2023-01-29T07:02:08.804Z,93534.00
2023-01-29T07:03:08.979Z,93540.00
2023-01-29T07:04:09.207Z,93538.00
2023-01-29T07:05:09.477Z,93538.00
2023-01-29T07:06:09.710Z,93538.00
2023-01-29T07:07:09.965Z,93538.00
2023-01-29T07:12:11.283Z,93546.00
2023-01-29T07:13:11.535Z,93552.00
2023-01-29T07:14:11.789Z,93548.00
2023-01-29T07:15:12.047Z,93552.00
2023-01-29T07:16:12.332Z,93552.00
2023-01-29T07:54:21.100Z,93567.00
2023-01-29T07:55:21.358Z,93569.00
2023-01-29T07:56:21.607Z,93571.00
2023-01-29T07:57:21.940Z,93573.00
2023-01-29T07:58:22.160Z,93573.00
2023-01-29T07:59:22.432Z,93571.00
2023-01-29T08:00:22.700Z,93571.00
2023-01-29T08:01:23.079Z,93571.00
2023-01-29T08:02:23.411Z,93567.00
2023-01-29T08:03:23.586Z,93565.00
2023-01-29T08:04:23.864Z,93565.00
2023-01-29T08:05:24.138Z,93563.00
2023-01-29T08:06:24.408Z,93567.00
2023-01-29T08:07:24.681Z,93567.00
2023-01-29T08:08:24.954Z,93567.00
2023-01-29T08:09:25.230Z,93565.00
2023-01-29T08:10:25.483Z,93565.00
2023-01-29T08:11:25.781Z,93569.00
2023-01-29T08:12:26.040Z,93569.00
2023-01-29T08:13:26.314Z,93565.00
2023-01-29T08:14:26.587Z,93563.00
2023-01-29T08:15:26.847Z,93559.00
2023-01-29T08:16:27.171Z,93563.00
2023-01-29T08:17:27.394Z,93557.00
2023-01-29T08:18:27.724Z,93559.00
2023-01-29T08:19:27.926Z,93557.00
2023-01-29T08:20:28.356Z,93557.00
2023-01-29T08:21:28.344Z,93554.00
2023-01-29T08:22:28.725Z,93554.00
2023-01-29T08:23:28.995Z,93554.00
2023-01-29T08:24:41.535Z,93556.00
2023-01-29T08:25:30.361Z,93556.00
2023-01-29T08:26:29.332Z,93556.00
2023-01-29T08:27:29.366Z,93557.00
2023-01-29T08:28:29.381Z,93554.00
2023-01-29T08:29:29.421Z,93554.00
2023-01-29T08:30:29.454Z,93556.00
2023-01-29T08:31:29.581Z,93554.00
2023-01-29T08:32:29.507Z,93556.00
2023-01-29T08:33:38.714Z,93556.00
2023-01-29T08:54:31.112Z,93552.00
2023-01-29T08:55:31.179Z,93550.00
2023-01-29T08:56:31.225Z,93548.00
2023-01-29T08:57:31.262Z,93548.00
2023-01-29T08:58:31.373Z,93544.00
2023-01-29T08:59:31.412Z,93546.00
2023-01-29T09:00:31.520Z,93550.00
2023-01-29T09:01:31.816Z,93548.00
2023-01-29T09:02:31.981Z,93542.00
2023-01-29T09:03:32.160Z,93544.00
2023-01-29T09:04:32.396Z,93538.00
2023-01-29T09:05:32.638Z,93538.00
2023-01-29T09:06:32.880Z,93544.00
2023-01-29T09:07:33.119Z,93542.00
2023-01-29T09:08:33.368Z,93536.00
2023-01-29T09:09:33.564Z,93544.00
2023-01-29T09:10:33.719Z,93542.00
2023-01-29T09:11:34.038Z,93544.00
2023-01-29T09:12:34.307Z,93542.00
2023-01-29T09:13:34.532Z,93538.00
2023-01-29T09:14:34.734Z,93536.00
2023-01-29T09:15:34.937Z,93534.00
2023-01-29T09:16:35.275Z,93526.00
2023-01-29T09:17:35.543Z,93530.00
2023-01-29T09:40:41.186Z,93512.00
2023-01-29T09:41:41.524Z,93514.00
2023-01-29T09:42:41.769Z,93510.00
2023-01-29T09:43:42.004Z,93512.00
2023-01-29T09:44:42.204Z,93508.00
2023-01-29T09:45:42.433Z,93504.00
2023-01-29T09:46:42.661Z,93504.00
2023-01-29T09:47:42.995Z,93506.00
2023-01-29T09:48:43.212Z,93506.00
2023-01-29T09:49:43.458Z,93506.00
2023-01-29T09:50:43.796Z,93508.00
2023-01-29T09:51:44.013Z,93504.00
2023-01-29T09:52:44.326Z,93497.00
2023-01-29T10:21:51.212Z,93463.00
2023-01-29T10:23:51.544Z,93450.00
2023-01-29T11:06:01.223Z,93418.00
2023-01-29T11:07:01.458Z,93414.00
2023-01-29T11:08:01.666Z,93412.00
2023-01-29T11:09:01.978Z,93406.00
2023-01-29T11:10:02.169Z,93404.00
2023-01-29T11:11:02.415Z,93403.00
2023-01-29T11:12:02.587Z,93401.00
2023-01-29T11:13:02.833Z,93401.00
2023-01-29T11:14:03.080Z,93399.00
2023-01-29T11:15:03.272Z,93401.00
2023-01-29T11:16:03.482Z,93399.00
2023-01-29T11:17:03.783Z,93395.00
2023-01-29T11:18:03.947Z,93395.00
2023-01-29T11:19:04.130Z,93391.00
2023-01-29T11:20:04.322Z,93393.00
2023-01-29T11:21:04.533Z,93391.00
2023-01-29T11:22:04.728Z,93393.00
2023-01-29T11:23:06.760Z,93389.00
2023-01-29T11:24:05.087Z,93389.00
2023-01-29T12:03:11.209Z,93313.00
2023-01-29T12:04:11.371Z,93313.00
2023-01-29T12:05:11.595Z,93313.00
2023-01-29T12:06:11.937Z,93311.00
2023-01-29T12:07:12.055Z,93313.00
2023-01-29T12:08:12.199Z,93305.00
2023-01-29T12:09:12.459Z,93301.00
2023-01-29T12:53:21.205Z,93269.00
2023-01-29T12:54:21.428Z,93264.00
2023-01-29T12:55:22.148Z,93264.00
2023-01-29T13:51:31.279Z,93226.00
2023-01-29T13:52:31.372Z,93228.00
2023-01-29T13:53:31.609Z,93226.00
2023-01-29T13:54:31.787Z,93226.00
2023-01-29T13:55:31.972Z,93228.00
2023-01-29T13:56:32.155Z,93228.00
2023-01-29T13:57:32.364Z,93226.00
2023-01-29T13:58:32.552Z,93228.00
2023-01-29T13:59:32.749Z,93228.00
2023-01-29T14:00:32.944Z,93228.00
2023-01-29T14:01:33.168Z,93228.00
2023-01-29T14:02:33.384Z,93228.00
2023-01-29T14:03:56.125Z,93228.00
2023-01-29T14:05:33.367Z,93226.00
2023-01-29T14:06:33.294Z,93224.00
2023-01-29T14:07:33.216Z,93224.00
2023-01-29T14:08:33.193Z,93226.00
2023-01-29T14:09:33.126Z,93226.00
2023-01-29T14:10:33.037Z,93224.00
2023-01-29T14:11:32.958Z,93226.00
2023-01-29T14:12:33.111Z,93226.00
2023-01-29T14:13:33.267Z,93222.00
2023-01-29T14:50:41.061Z,93203.00
2023-01-29T14:51:41.247Z,93207.00
2023-01-29T14:52:41.451Z,93205.00
2023-01-29T14:53:41.671Z,93207.00
2023-01-29T14:54:41.881Z,93207.00
2023-01-29T14:55:42.107Z,93205.00
2023-01-29T14:56:42.319Z,93207.00
2023-01-29T14:57:42.521Z,93207.00
2023-01-29T14:58:42.741Z,93207.00
2023-01-29T14:59:42.945Z,93209.00
2023-01-29T15:00:43.183Z,93207.00
2023-01-29T15:01:43.473Z,93209.00
2023-01-29T15:02:43.701Z,93207.00
2023-01-29T15:03:43.898Z,93207.00
2023-01-29T15:04:44.104Z,93205.00
2023-01-29T15:05:44.324Z,93203.00
2023-01-29T15:06:44.520Z,93205.00
2023-01-29T15:07:44.736Z,93203.00
2023-01-29T15:08:44.951Z,93205.00
2023-01-29T15:09:45.233Z,93209.00
2023-01-29T15:10:45.366Z,93209.00
2023-01-29T15:11:45.570Z,93209.00
2023-01-29T15:12:45.789Z,93209.00
2023-01-29T15:13:45.989Z,93213.00
2023-01-29T15:14:46.190Z,93211.00
2023-01-29T15:15:46.445Z,93213.00
2023-01-29T15:16:46.644Z,93213.00
2023-01-29T15:17:46.867Z,93214.00
2023-01-29T15:18:47.076Z,93209.00
2023-01-29T15:19:47.299Z,93211.00
2023-01-29T15:20:47.517Z,93213.00
2023-01-29T15:21:47.728Z,93216.00
2023-01-29T15:22:47.949Z,93216.00
2023-01-29T15:23:48.165Z,93216.00
2023-01-29T15:24:48.378Z,93216.00
2023-01-29T15:25:48.597Z,93214.00
2023-01-29T15:26:48.859Z,93216.00
2023-01-29T15:27:48.977Z,93214.00
2023-01-29T15:28:58.512Z,93214.00
2023-01-29T15:29:50.137Z,93214.00
2023-01-29T15:30:49.169Z,93216.00
2023-01-29T15:31:49.185Z,93214.00
2023-01-29T15:32:48.964Z,93218.00
2023-01-29T15:33:49.027Z,93218.00
2023-01-29T15:34:48.958Z,93220.00
2023-01-29T15:35:51.645Z,93222.00
2023-01-29T15:36:48.861Z,93224.00
2023-01-29T15:37:48.785Z,93226.00
2023-01-29T15:38:48.752Z,93224.00
2023-01-29T15:39:48.685Z,93222.00
2023-01-29T15:40:48.613Z,93220.00
2023-01-29T15:41:48.687Z,93226.00
2023-01-29T15:42:48.706Z,93224.00
2023-01-29T15:43:48.588Z,93224.00
2023-01-29T15:44:48.517Z,93226.00
2023-01-29T15:45:48.455Z,93224.00
2023-01-29T15:46:48.370Z,93226.00
2023-01-29T15:47:48.346Z,93228.00
2023-01-29T15:48:48.272Z,93226.00
2023-01-29T15:49:48.448Z,93224.00
2023-01-29T15:50:48.656Z,93226.00
2023-01-29T15:51:48.882Z,93224.00
2023-01-29T15:52:49.008Z,93220.00
2023-01-29T15:53:49.237Z,93218.00
2023-01-29T15:54:49.464Z,93216.00
2023-01-29T15:55:49.711Z,93216.00
2023-01-29T15:56:49.862Z,93214.00
2023-01-29T15:57:50.086Z,93211.00
2023-01-29T15:58:50.323Z,93213.00
2023-01-29T15:59:50.459Z,93213.00
2023-01-29T16:00:50.686Z,93214.00
2023-01-29T16:01:50.947Z,93218.00
2023-01-29T16:02:51.197Z,93220.00
2023-01-29T16:03:51.430Z,93222.00
2023-01-29T16:04:51.577Z,93218.00
2023-01-29T16:05:51.833Z,93222.00
2023-01-29T16:06:51.983Z,93224.00
2023-01-29T16:07:52.244Z,93220.00
2023-01-29T16:08:52.396Z,93220.00
2023-01-29T16:09:52.638Z,93220.00
2023-01-29T16:10:52.787Z,93220.00
2023-01-29T16:11:53.030Z,93220.00
2023-01-29T16:12:53.268Z,93218.00
2023-01-29T16:13:53.409Z,93220.00
2023-01-29T16:14:53.670Z,93220.00
2023-01-29T16:15:53.930Z,93222.00
2023-01-29T16:16:54.109Z,93222.00
2023-01-29T16:17:54.318Z,93226.00
2023-01-29T16:19:00.377Z,93228.00
2023-01-29T16:19:55.411Z,93230.00
2023-01-29T16:20:54.365Z,93232.00
2023-01-29T16:21:54.334Z,93230.00
2023-01-29T16:22:54.278Z,93236.00
2023-01-29T16:23:54.247Z,93236.00
2023-01-29T16:24:54.204Z,93236.00
2023-01-29T16:25:54.168Z,93236.00
2023-01-29T16:26:54.123Z,93236.00
2023-01-29T16:27:54.083Z,93236.00
2023-01-29T16:28:54.039Z,93238.00
2023-01-29T16:29:54.036Z,93234.00
2023-01-29T16:30:54.197Z,93234.00
2023-01-29T16:31:55.194Z,93236.00
2023-01-29T16:32:53.997Z,93240.00
2023-01-29T16:33:53.965Z,93240.00
2023-01-29T16:34:53.914Z,93242.00
2023-01-29T16:35:53.899Z,93242.00
2023-01-29T16:36:54.699Z,93242.00
2023-01-29T16:37:53.809Z,93242.00
2023-01-29T16:38:53.769Z,93246.00
2023-01-29T16:39:53.949Z,93246.00
2023-01-29T16:40:54.150Z,93248.00
2023-01-29T16:41:54.337Z,93246.00
2023-01-29T16:42:54.508Z,93250.00
2023-01-29T16:43:54.715Z,93252.00
2023-01-29T16:44:54.890Z,93254.00
2023-01-29T16:45:55.120Z,93256.00
2023-01-29T16:46:55.350Z,93256.00
2023-01-29T16:47:55.590Z,93254.00
2023-01-29T16:48:55.766Z,93254.00
2023-01-29T16:49:56.023Z,93252.00
2023-01-29T16:50:56.279Z,93252.00
2023-01-29T16:51:56.452Z,93258.00
2023-01-29T16:52:57.705Z,93256.00
2023-01-29T16:53:56.693Z,93258.00
2023-01-29T16:54:56.725Z,93260.00
2023-01-29T16:55:56.772Z,93260.00
2023-01-29T16:56:56.804Z,93264.00
2023-01-29T16:57:56.835Z,93262.00
2023-01-29T16:58:56.954Z,93266.00
2023-01-29T16:59:56.898Z,93266.00
2023-01-29T17:00:56.958Z,93268.00
2023-01-29T17:01:56.953Z,93266.00
2023-01-29T17:02:56.988Z,93269.00
2023-01-29T17:03:57.136Z,93273.00
2023-01-29T17:04:57.315Z,93275.00
2023-01-29T17:05:57.521Z,93277.00
2023-01-29T17:06:57.724Z,93277.00
2023-01-29T17:07:57.944Z,93275.00
2023-01-29T17:08:58.187Z,93277.00
2023-01-29T17:09:58.386Z,93281.00
2023-01-29T17:23:01.205Z,93303.00
2023-01-29T17:24:01.476Z,93305.00
2023-01-29T17:25:01.677Z,93305.00
2023-01-29T17:26:01.888Z,93307.00
2023-01-29T17:27:02.136Z,93307.00
2023-01-29T17:28:02.420Z,93309.00
2023-01-29T17:29:02.609Z,93305.00
2023-01-29T17:30:02.824Z,93309.00
2023-01-29T17:31:06.762Z,93307.00
2023-01-29T17:32:03.031Z,93305.00
2023-01-29T17:33:02.983Z,93307.00
2023-01-29T17:34:02.933Z,93305.00
2023-01-29T17:35:02.916Z,93309.00
2023-01-29T17:36:02.965Z,93307.00
2023-01-29T17:37:02.968Z,93303.00
2023-01-29T17:38:02.921Z,93307.00
2023-01-29T17:39:02.898Z,93307.00
2023-01-29T17:40:05.261Z,93305.00
2023-01-29T17:41:02.946Z,93309.00
2023-01-29T17:42:02.952Z,93305.00
2023-01-29T17:43:02.939Z,93307.00
2023-01-29T17:44:02.954Z,93305.00
2023-01-29T17:45:02.948Z,93305.00
2023-01-29T17:47:02.923Z,93311.00
2023-01-29T17:48:02.917Z,93313.00
2023-01-29T17:49:02.901Z,93313.00
2023-01-29T18:15:02.720Z,93320.00
2023-01-29T20:22:11.078Z,93383.00
2023-01-29T20:23:11.131Z,93385.00
2023-01-29T20:24:11.199Z,93389.00
2023-01-29T20:25:11.263Z,93389.00
2023-01-29T21:04:13.455Z,93393.00
2023-01-29T21:06:13.512Z,93393.00
2023-01-29T21:07:13.538Z,93391.00
2023-01-29T21:08:13.583Z,93391.00
2023-01-29T21:09:13.638Z,93391.00
2023-01-29T21:11:13.771Z,93391.00
2023-01-29T21:12:13.805Z,93393.00
2023-01-29T21:13:13.872Z,93393.00
2023-01-29T21:14:13.944Z,93393.00
2023-01-29T21:15:14.024Z,93395.00
2023-01-29T21:16:14.151Z,93391.00
2023-01-29T21:17:14.152Z,93393.00
2023-01-29T21:18:14.225Z,93395.00
2023-01-29T21:19:14.302Z,93395.00
2023-01-29T21:20:14.550Z,93397.00
2023-01-29T21:21:14.442Z,93399.00
2023-01-29T21:22:14.510Z,93399.00
2023-01-29T21:23:14.574Z,93395.00
2023-01-29T21:24:14.632Z,93397.00
2023-01-29T21:25:14.707Z,93397.00
2023-01-29T21:26:14.801Z,93401.00
2023-01-29T21:27:14.809Z,93399.00
2023-01-29T21:28:14.867Z,93401.00
2023-01-29T21:29:14.902Z,93401.00
2023-01-29T21:30:15.288Z,93399.00
2023-01-29T23:09:21.164Z,93387.00
2023-01-29T23:10:21.431Z,93387.00
2023-01-29T23:11:21.694Z,93385.00
2023-01-29T23:12:21.945Z,93383.00
2023-01-29T23:13:22.203Z,93385.00
2023-01-29T23:14:22.472Z,93383.00
2023-01-29T23:15:22.729Z,93383.00
2023-01-29T23:16:23.071Z,93381.00
2023-01-29T23:17:23.239Z,93379.00
2023-01-29T23:18:23.506Z,93379.00
2023-01-29T23:19:23.765Z,93377.00
2023-01-29T23:20:24.012Z,93373.00
2023-01-29T23:21:24.265Z,93375.00
2023-01-29T23:22:24.542Z,93373.00
2023-01-29T23:23:24.824Z,93375.00
2023-01-29T23:24:25.089Z,93371.00
2023-01-29T23:25:25.359Z,93373.00
2023-01-29T23:47:31.215Z,93318.00
2023-01-29T23:48:31.461Z,93322.00
2023-01-29T23:49:31.738Z,93320.00
2023-01-29T23:50:32.007Z,93324.00
2023-01-29T23:51:32.250Z,93322.00
2023-01-29T23:52:32.418Z,93320.00
2023-01-29T23:53:32.663Z,93324.00
2023-01-29T23:54:32.939Z,93320.00
2023-01-29T23:55:33.228Z,93318.00
2023-01-29T23:56:33.476Z,93318.00
2023-01-29T23:57:33.697Z,93315.00
2023-01-29T23:58:33.910Z,93320.00
2023-01-29T23:59:34.140Z,93315.00
